Time;durP1;ratioP1;P1;durP2;ratioP2;P2;SDS_P1;SDS_P2;PMS_P1;PMS_P2;Temp;Humidity;BMP_temperature;BMP_pressure;BME280_temperature;BME280_humidity;BME280_pressure;Samples;Min_cycle;Max_cycle;Signal;HPM_P1;HPM_P2
2023/09/27 00:02:24;;;;;;;0.00;0.00;;;13.00;99.90;;;;;;5092938;28;20184;-66
2023/09/27 00:04:51;;;;;;;0.00;0.00;;;13.00;99.90;;;;;;5092577;28;20214;-65
2023/09/27 00:07:16;;;;;;;0.00;0.00;;;13.00;99.90;;;;;;5091665;28;20199;-65
2023/09/27 00:09:42;;;;;;;0.00;0.00;;;12.90;99.90;;;;;;5091330;28;20214;-65
2023/09/27 00:12:08;;;;;;;0.00;0.00;;;12.90;99.90;;;;;;5092496;28;20218;-66
2023/09/27 00:14:34;;;;;;;0.00;0.00;;;12.90;99.90;;;;;;5092516;28;20605;-66
2023/09/27 00:17:00;;;;;;;0.00;0.00;;;12.90;99.90;;;;;;5092261;28;20243;-66
2023/09/27 00:19:25;;;;;;;0.10;0.10;;;12.80;99.90;;;;;;5092472;28;20194;-65
2023/09/27 00:21:51;;;;;;;0.00;0.00;;;12.80;99.90;;;;;;5092300;28;20180;-66
2023/09/27 00:24:16;;;;;;;0.00;0.00;;;12.80;99.90;;;;;;5092451;28;20188;-65
2023/09/27 00:26:42;;;;;;;0.00;0.00;;;12.80;99.90;;;;;;5091437;28;20187;-65
2023/09/27 00:29:08;;;;;;;0.00;0.00;;;12.80;99.90;;;;;;5092016;28;20179;-65
2023/09/27 00:31:33;;;;;;;0.00;0.00;;;12.80;99.90;;;;;;5092005;28;20709;-66
2023/09/27 00:33:59;;;;;;;0.00;0.00;;;12.80;99.90;;;;;;5091802;28;20188;-66
2023/09/27 00:36:24;;;;;;;0.00;0.00;;;12.80;99.90;;;;;;5091135;28;20180;-66
2023/09/27 00:38:50;;;;;;;0.00;0.00;;;12.80;99.90;;;;;;5091594;28;20223;-66
2023/09/27 00:41:15;;;;;;;0.00;0.00;;;12.80;99.90;;;;;;5091906;28;20253;-66
2023/09/27 00:43:41;;;;;;;0.00;0.00;;;12.80;99.90;;;;;;5091730;28;20527;-66
2023/09/27 00:46:07;;;;;;;0.00;0.00;;;12.80;99.90;;;;;;5091725;28;20187;-66
2023/09/27 00:48:35;;;;;;;0.00;0.00;;;12.70;99.90;;;;;;5091520;28;20204;-66
2023/09/27 00:51:03;;;;;;;0.00;0.00;;;12.70;99.90;;;;;;5091550;28;20584;-66
2023/09/27 00:53:31;;;;;;;0.00;0.00;;;12.70;99.90;;;;;;5091553;28;20257;-66
2023/09/27 00:55:57;;;;;;;0.08;0.08;;;12.70;99.90;;;;;;5091110;28;20655;-66
2023/09/27 00:58:24;;;;;;;0.00;0.00;;;12.70;99.90;;;;;;5091477;28;20180;-66
2023/09/27 01:00:51;;;;;;;0.00;0.00;;;12.70;99.90;;;;;;5091293;28;20258;-65
2023/09/27 01:03:18;;;;;;;0.00;0.00;;;12.70;99.90;;;;;;5091354;28;20202;-65
2023/09/27 01:05:45;;;;;;;0.00;0.00;;;12.70;99.90;;;;;;5091070;28;20187;-66
2023/09/27 01:08:10;;;;;;;0.05;0.05;;;12.70;99.90;;;;;;5091220;28;20569;-65
2023/09/27 01:10:36;;;;;;;0.00;0.00;;;12.70;99.90;;;;;;5091246;28;20188;-65
2023/09/27 01:13:02;;;;;;;0.20;0.20;;;12.70;99.90;;;;;;5091075;28;20216;-65
2023/09/27 01:15:28;;;;;;;0.00;0.00;;;12.70;99.90;;;;;;5090889;28;20180;-65
2023/09/27 01:17:55;;;;;;;0.00;0.00;;;12.70;99.90;;;;;;5091466;28;20172;-65
2023/09/27 01:20:21;;;;;;;0.00;0.00;;;12.70;99.90;;;;;;5091087;28;20172;-66
2023/09/27 01:23:06;;;;;;;0.00;0.00;;;12.70;99.90;;;;;;5090956;28;20191;-65
2023/09/27 01:25:34;;;;;;;0.00;0.00;;;12.60;99.90;;;;;;5079529;28;20187;-65
2023/09/27 01:28:01;;;;;;;0.00;0.00;;;12.60;99.90;;;;;;5091256;28;20517;-66
2023/09/27 01:30:32;;;;;;;0.45;0.45;;;12.50;99.90;;;;;;5090928;28;20259;-65
2023/09/27 01:33:08;;;;;;;0.00;0.00;;;12.50;99.90;;;;;;5091083;28;20208;-65
2023/09/27 01:35:41;;;;;;;0.05;0.03;;;12.40;99.90;;;;;;5091022;28;20263;-66
2023/09/27 01:38:08;;;;;;;0.00;0.00;;;12.40;99.90;;;;;;5091063;28;20298;-65
2023/09/27 01:40:45;;;;;;;0.00;0.00;;;12.40;99.90;;;;;;5090998;28;20537;-66
2023/09/27 01:43:11;;;;;;;0.00;0.00;;;12.30;99.90;;;;;;5091230;28;20191;-65
2023/09/27 01:45:37;;;;;;;0.00;0.00;;;12.30;99.90;;;;;;5091345;28;20507;-65
2023/09/27 01:48:04;;;;;;;0.00;0.00;;;12.30;99.90;;;;;;5096525;28;20393;-65
2023/09/27 01:50:33;;;;;;;0.00;0.00;;;12.20;99.90;;;;;;5097467;28;20190;-65
2023/09/27 01:52:58;;;;;;;0.00;0.00;;;12.20;99.90;;;;;;5097658;28;20702;-65
2023/09/27 01:55:24;;;;;;;0.00;0.00;;;12.20;99.90;;;;;;5097588;28;20254;-65
2023/09/27 01:57:50;;;;;;;0.00;0.00;;;12.10;99.90;;;;;;5097273;28;20190;-65
2023/09/27 02:00:18;;;;;;;0.20;0.20;;;12.10;99.90;;;;;;5088052;28;20184;-65
2023/09/27 02:02:45;;;;;;;0.00;0.00;;;12.10;99.90;;;;;;5097554;28;20172;-64
2023/09/27 02:05:11;;;;;;;0.00;0.00;;;12.10;99.90;;;;;;5097377;28;20191;-65
2023/09/27 02:07:40;;;;;;;0.00;0.00;;;12.10;99.90;;;;;;5097054;28;20612;-64
2023/09/27 02:10:10;;;;;;;0.00;0.00;;;12.00;99.90;;;;;;5097636;28;20179;-65
2023/09/27 02:12:37;;;;;;;0.00;0.00;;;12.00;99.90;;;;;;5097373;28;20211;-65
2023/09/27 02:15:09;;;;;;;0.00;0.00;;;12.00;99.90;;;;;;5097617;28;20579;-65
2023/09/27 02:17:36;;;;;;;0.00;0.00;;;11.90;99.90;;;;;;5096689;28;20180;-65
2023/09/27 02:20:23;;;;;;;0.00;0.00;;;11.90;99.90;;;;;;5097120;28;20232;-63
2023/09/27 02:22:49;;;;;;;0.00;0.00;;;11.90;99.90;;;;;;5097425;28;20835;-64
2023/09/27 02:25:16;;;;;;;0.05;0.05;;;11.90;99.90;;;;;;5096896;28;20275;-64
2023/09/27 02:27:42;;;;;;;0.00;0.00;;;11.90;99.90;;;;;;5097223;28;20204;-65
2023/09/27 02:30:12;;;;;;;0.00;0.00;;;11.80;99.90;;;;;;5097438;28;20237;-65
2023/09/27 02:32:40;;;;;;;0.00;0.00;;;11.80;99.90;;;;;;5097333;28;20204;-65
2023/09/27 02:35:06;;;;;;;0.00;0.00;;;11.80;99.90;;;;;;5097507;28;20180;-65
2023/09/27 02:37:32;;;;;;;0.00;0.00;;;11.70;99.90;;;;;;5097160;28;20269;-64
2023/09/27 02:39:58;;;;;;;0.00;0.00;;;11.80;99.90;;;;;;5097434;28;20180;-64
2023/09/27 02:42:24;;;;;;;0.00;0.00;;;11.70;99.90;;;;;;5097420;28;20549;-64
2023/09/27 02:44:50;;;;;;;0.08;0.08;;;11.70;99.90;;;;;;5097295;28;20183;-65
2023/09/27 02:47:16;;;;;;;0.00;0.00;;;11.70;99.90;;;;;;5097446;28;20179;-65
2023/09/27 02:49:42;;;;;;;0.00;0.00;;;11.60;99.90;;;;;;5096771;28;20213;-64
2023/09/27 02:52:07;;;;;;;0.00;0.00;;;11.60;99.90;;;;;;5096927;28;20192;-64
2023/09/27 02:54:33;;;;;;;0.00;0.00;;;11.50;99.90;;;;;;5095737;28;20191;-64
2023/09/27 02:56:59;;;;;;;0.00;0.00;;;11.50;99.90;;;;;;5097075;28;20175;-64
2023/09/27 02:59:24;;;;;;;0.10;0.10;;;11.50;99.90;;;;;;5092596;28;20176;-64
2023/09/27 03:01:50;;;;;;;0.00;0.00;;;11.50;99.90;;;;;;5093730;28;20187;-65
2023/09/27 03:04:15;;;;;;;0.00;0.00;;;11.50;99.90;;;;;;5093877;28;20211;-64
2023/09/27 03:06:41;;;;;;;0.00;0.00;;;11.50;99.90;;;;;;5093697;28;20265;-63
2023/09/27 03:09:08;;;;;;;0.00;0.00;;;11.50;99.90;;;;;;5093036;28;20198;-64
2023/09/27 03:11:34;;;;;;;0.00;0.00;;;11.50;99.90;;;;;;5093535;28;20195;-64
2023/09/27 03:14:00;;;;;;;0.00;0.00;;;11.50;99.90;;;;;;5093600;28;20215;-64
2023/09/27 03:16:26;;;;;;;0.00;0.00;;;11.50;99.90;;;;;;5093433;28;20251;-64
2023/09/27 03:18:54;;;;;;;0.00;0.00;;;11.50;99.90;;;;;;5093184;28;20321;-64
2023/09/27 03:21:20;;;;;;;0.00;0.00;;;11.60;99.90;;;;;;5093607;28;20176;-64
2023/09/27 03:23:46;;;;;;;0.00;0.00;;;11.50;99.90;;;;;;5093058;28;20188;-64
2023/09/27 03:26:11;;;;;;;0.00;0.00;;;11.50;99.90;;;;;;5093416;28;20188;-64
2023/09/27 03:28:37;;;;;;;0.00;0.00;;;11.50;99.90;;;;;;5099974;28;20180;-62
2023/09/27 03:31:02;;;;;;;0.00;0.00;;;11.50;99.90;;;;;;5102166;28;20260;-61
2023/09/27 03:33:28;;;;;;;0.00;0.00;;;11.50;99.90;;;;;;5092490;28;20215;-64
2023/09/27 03:35:54;;;;;;;0.00;0.00;;;11.50;99.90;;;;;;5093404;28;20251;-64
2023/09/27 03:38:20;;;;;;;0.00;0.00;;;11.50;99.90;;;;;;5093095;28;20251;-65
2023/09/27 03:40:48;;;;;;;0.00;0.00;;;11.50;99.90;;;;;;5093482;28;20185;-63
2023/09/27 03:43:13;;;;;;;0.00;0.00;;;11.50;99.90;;;;;;5093280;28;20176;-63
2023/09/27 03:45:39;;;;;;;0.10;0.10;;;11.50;99.90;;;;;;5093407;28;20217;-63
2023/09/27 03:48:05;;;;;;;0.00;0.00;;;11.40;99.90;;;;;;5093563;28;20180;-65
2023/09/27 03:50:30;;;;;;;0.00;0.00;;;11.40;99.90;;;;;;5093169;28;20225;-64
2023/09/27 03:52:57;;;;;;;0.00;0.00;;;11.30;99.90;;;;;;5093146;28;20272;-66
2023/09/27 03:55:22;;;;;;;0.00;0.00;;;11.30;99.90;;;;;;5093335;28;20207;-64
2023/09/27 03:57:48;;;;;;;0.00;0.00;;;11.30;99.90;;;;;;5092757;28;20672;-64
2023/09/27 04:00:14;;;;;;;0.45;0.10;;;11.30;99.90;;;;;;5093172;28;20679;-67
2023/09/27 04:02:41;;;;;;;0.00;0.00;;;11.30;99.90;;;;;;5093162;28;20645;-65
2023/09/27 04:05:07;;;;;;;0.00;0.00;;;11.30;99.90;;;;;;5092750;28;20229;-65
2023/09/27 04:07:33;;;;;;;0.00;0.00;;;11.30;99.90;;;;;;5092914;28;20187;-70
2023/09/27 04:10:00;;;;;;;0.10;0.10;;;11.30;99.90;;;;;;5088030;28;20658;-66
2023/09/27 04:12:26;;;;;;;0.00;0.00;;;11.30;99.90;;;;;;5091990;28;20702;-65
2023/09/27 04:14:52;;;;;;;0.00;0.00;;;11.30;99.90;;;;;;5092737;28;20187;-66
2023/09/27 04:17:17;;;;;;;0.00;0.00;;;11.20;99.90;;;;;;5092186;28;20587;-67
2023/09/27 04:19:43;;;;;;;0.00;0.00;;;11.20;99.90;;;;;;5092934;28;20176;-67
2023/09/27 04:22:08;;;;;;;0.00;0.00;;;11.20;99.90;;;;;;5092995;28;20199;-66
2023/09/27 04:24:34;;;;;;;0.00;0.00;;;11.20;99.90;;;;;;5092548;28;20176;-65
2023/09/27 04:26:59;;;;;;;0.00;0.00;;;11.20;99.90;;;;;;5093101;28;20192;-66
2023/09/27 04:29:26;;;;;;;0.00;0.00;;;11.20;99.90;;;;;;5091376;28;20183;-66
2023/09/27 04:31:52;;;;;;;0.00;0.00;;;11.20;99.90;;;;;;5092180;28;20184;-66
2023/09/27 04:34:17;;;;;;;0.00;0.00;;;11.10;99.90;;;;;;5092276;28;20549;-66
2023/09/27 04:36:44;;;;;;;0.00;0.00;;;11.10;99.90;;;;;;5092273;28;20687;-67
2023/09/27 04:39:16;;;;;;;0.25;0.25;;;11.10;99.90;;;;;;5092277;28;20224;-67
2023/09/27 04:41:43;;;;;;;0.00;0.00;;;11.00;99.90;;;;;;5092332;28;20197;-66
2023/09/27 04:44:09;;;;;;;0.00;0.00;;;11.00;99.90;;;;;;5092091;28;20180;-67
2023/09/27 04:46:34;;;;;;;0.00;0.00;;;11.00;99.90;;;;;;5091920;28;20715;-67
2023/09/27 04:49:00;;;;;;;0.00;0.00;;;10.90;99.90;;;;;;5092323;28;20543;-67
2023/09/27 04:51:26;;;;;;;0.08;0.08;;;10.90;99.90;;;;;;5092440;28;20293;-67
2023/09/27 04:53:51;;;;;;;0.10;0.10;;;10.90;99.90;;;;;;5092219;28;20303;-67
2023/09/27 04:56:17;;;;;;;0.00;0.00;;;10.90;99.90;;;;;;5092278;28;20209;-67
2023/09/27 04:58:42;;;;;;;0.00;0.00;;;10.90;99.90;;;;;;5092251;28;20254;-67
2023/09/27 05:01:11;;;;;;;0.00;0.00;;;10.80;99.90;;;;;;5092354;28;20188;-67
2023/09/27 05:03:37;;;;;;;0.00;0.00;;;10.80;99.90;;;;;;5092003;28;20184;-67
2023/09/27 05:06:03;;;;;;;0.00;0.00;;;10.80;99.90;;;;;;5091748;28;20168;-68
2023/09/27 05:08:29;;;;;;;0.00;0.00;;;10.80;99.90;;;;;;5091955;28;20266;-67
2023/09/27 05:10:56;;;;;;;0.10;0.10;;;10.80;99.90;;;;;;5091883;28;20204;-67
2023/09/27 05:13:22;;;;;;;0.00;0.00;;;10.80;99.90;;;;;;5091981;28;20210;-67
2023/09/27 05:15:48;;;;;;;0.00;0.00;;;10.80;99.90;;;;;;5091907;28;20533;-67
2023/09/27 05:18:14;;;;;;;0.00;0.00;;;10.80;99.90;;;;;;5091890;28;20219;-67
2023/09/27 05:20:39;;;;;;;0.00;0.00;;;10.80;99.90;;;;;;5091139;28;20192;-67
2023/09/27 05:23:05;;;;;;;0.00;0.00;;;10.80;99.90;;;;;;5091942;28;20182;-67
2023/09/27 05:25:30;;;;;;;0.00;0.00;;;10.80;99.90;;;;;;5091781;28;20172;-67
2023/09/27 05:27:57;;;;;;;0.00;0.00;;;10.80;99.90;;;;;;5091753;28;20172;-67
2023/09/27 05:30:22;;;;;;;0.00;0.00;;;10.80;99.90;;;;;;5091787;28;20160;-67
2023/09/27 05:32:48;;;;;;;0.00;0.00;;;10.80;99.90;;;;;;5091333;28;20714;-67
2023/09/27 05:35:14;;;;;;;0.00;0.00;;;10.80;99.90;;;;;;5091213;28;20207;-67
2023/09/27 05:37:42;;;;;;;0.00;0.00;;;10.80;99.90;;;;;;5091158;28;20227;-67
2023/09/27 05:40:09;;;;;;;0.00;0.00;;;10.80;99.90;;;;;;5091283;28;20565;-67
2023/09/27 05:42:35;;;;;;;0.00;0.00;;;10.80;99.90;;;;;;5091120;28;20180;-67
2023/09/27 05:45:01;;;;;;;0.00;0.00;;;10.80;99.90;;;;;;5091263;28;20172;-67
2023/09/27 05:47:27;;;;;;;0.00;0.00;;;10.90;99.90;;;;;;5091331;28;20176;-67
2023/09/27 05:49:53;;;;;;;0.00;0.00;;;11.00;99.90;;;;;;5091154;28;20175;-67
2023/09/27 05:52:19;;;;;;;0.00;0.00;;;11.00;99.90;;;;;;5091291;28;20215;-67
2023/09/27 05:54:46;;;;;;;0.00;0.00;;;11.10;99.90;;;;;;5091253;28;20180;-67
2023/09/27 05:57:11;;;;;;;0.00;0.00;;;11.10;99.90;;;;;;5091238;28;20183;-67
2023/09/27 05:59:40;;;;;;;0.00;0.00;;;11.20;99.90;;;;;;5091046;28;20176;-67
2023/09/27 06:02:06;;;;;;;0.00;0.00;;;11.30;99.90;;;;;;5091237;28;20184;-67
2023/09/27 06:04:32;;;;;;;0.00;0.00;;;11.30;99.90;;;;;;5091185;28;20168;-67
2023/09/27 06:06:58;;;;;;;0.00;0.00;;;11.40;99.90;;;;;;5089775;28;20230;-67
2023/09/27 06:09:24;;;;;;;0.00;0.00;;;11.50;99.90;;;;;;5091091;28;20184;-67
2023/09/27 06:11:50;;;;;;;0.00;0.00;;;11.50;99.90;;;;;;5091027;28;20184;-67
2023/09/27 06:14:15;;;;;;;0.00;0.00;;;11.50;99.90;;;;;;5090985;28;20182;-67
2023/09/27 06:16:44;;;;;;;0.00;0.00;;;11.60;99.90;;;;;;5091001;28;20173;-67
2023/09/27 06:19:11;;;;;;;0.00;0.00;;;11.60;99.90;;;;;;5091124;28;20187;-67
2023/09/27 06:21:37;;;;;;;0.00;0.00;;;11.70;99.90;;;;;;5091108;28;20180;-67
2023/09/27 06:24:03;;;;;;;0.00;0.00;;;11.90;99.90;;;;;;5091262;28;20203;-64
2023/09/27 06:26:29;;;;;;;0.10;0.10;;;12.10;99.90;;;;;;5091345;28;20198;-66
2023/09/27 06:28:54;;;;;;;0.10;0.10;;;12.30;99.90;;;;;;5091108;28;20176;-66
2023/09/27 06:31:21;;;;;;;0.00;0.00;;;12.60;99.90;;;;;;5091262;28;20179;-66
2023/09/27 06:33:47;;;;;;;0.00;0.00;;;13.00;99.90;;;;;;5092677;28;20566;-66
2023/09/27 06:36:15;;;;;;;0.00;0.00;;;13.40;99.90;;;;;;5095078;28;20168;-66
2023/09/27 06:38:40;;;;;;;0.00;0.00;;;13.80;99.90;;;;;;5094792;28;20350;-66
2023/09/27 06:41:08;;;;;;;0.00;0.00;;;14.20;99.90;;;;;;5094961;28;20255;-66
2023/09/27 06:43:34;;;;;;;0.00;0.00;;;14.60;99.90;;;;;;5094735;28;20647;-66
2023/09/27 06:46:07;;;;;;;0.00;0.00;;;15.00;99.90;;;;;;5094817;28;20215;-67
2023/09/27 06:48:32;;;;;;;0.00;0.00;;;15.50;99.90;;;;;;5094725;28;20659;-67
2023/09/27 06:50:58;;;;;;;0.00;0.00;;;15.90;99.90;;;;;;5094724;28;20253;-66
2023/09/27 06:53:24;;;;;;;0.00;0.00;;;16.30;99.90;;;;;;5094657;28;20216;-66
2023/09/27 06:55:53;;;;;;;0.00;0.00;;;16.70;99.90;;;;;;5094593;28;20207;-66
2023/09/27 06:58:23;;;;;;;0.00;0.00;;;17.00;99.90;;;;;;5094578;28;20667;-66
2023/09/27 07:00:49;;;;;;;0.00;0.00;;;17.30;99.90;;;;;;5094546;28;20671;-66
2023/09/27 07:03:15;;;;;;;0.00;0.00;;;17.50;99.90;;;;;;5094421;28;20172;-66
2023/09/27 07:05:41;;;;;;;0.00;0.00;;;17.80;99.90;;;;;;5094382;28;20187;-66
2023/09/27 07:08:06;;;;;;;0.00;0.00;;;18.20;99.90;;;;;;5094467;28;20191;-67
2023/09/27 07:10:32;;;;;;;0.00;0.00;;;18.50;99.90;;;;;;5094328;28;20251;-67
2023/09/27 07:12:57;;;;;;;0.00;0.00;;;18.90;99.90;;;;;;5094063;28;20628;-66
2023/09/27 07:15:23;;;;;;;0.00;0.00;;;19.30;99.90;;;;;;5094260;28;20186;-66
2023/09/27 07:17:49;;;;;;;0.00;0.00;;;19.70;99.90;;;;;;5094242;28;20266;-67
2023/09/27 07:20:27;;;;;;;0.00;0.00;;;19.90;99.90;;;;;;5094148;28;20229;-67
2023/09/27 07:22:54;;;;;;;0.00;0.00;;;20.20;99.90;;;;;;5094086;28;20232;-67
2023/09/27 07:25:20;;;;;;;0.00;0.00;;;20.60;99.90;;;;;;5094187;28;20184;-66
2023/09/27 07:27:50;;;;;;;0.03;0.03;;;20.80;99.90;;;;;;5093971;28;20201;-67
2023/09/27 07:30:20;;;;;;;0.00;0.00;;;21.10;99.90;;;;;;5093910;28;20171;-66
2023/09/27 07:32:46;;;;;;;0.00;0.00;;;21.20;99.80;;;;;;5093849;28;20227;-67
2023/09/27 07:35:14;;;;;;;0.00;0.00;;;21.40;99.30;;;;;;5093827;28;20208;-66
2023/09/27 07:37:40;;;;;;;0.08;0.08;;;21.50;98.90;;;;;;5093555;28;20713;-66
2023/09/27 07:40:10;;;;;;;0.00;0.00;;;21.70;99.00;;;;;;5093831;28;20214;-66
2023/09/27 07:42:45;;;;;;;0.68;0.35;;;21.90;98.50;;;;;;5093545;28;20658;-66
2023/09/27 07:45:20;;;;;;;0.00;0.00;;;22.20;98.20;;;;;;5093437;28;20229;-66
2023/09/27 07:47:50;;;;;;;0.00;0.00;;;22.50;97.70;;;;;;5093635;28;20258;-66
2023/09/27 07:50:17;;;;;;;0.00;0.00;;;22.70;97.40;;;;;;5093567;28;20177;-66
2023/09/27 07:52:43;;;;;;;1.15;1.10;;;22.80;97.30;;;;;;5093468;28;20216;-66
2023/09/27 07:55:11;;;;;;;0.15;0.15;;;23.00;96.80;;;;;;5093510;28;20188;-66
2023/09/27 07:57:37;;;;;;;0.00;0.00;;;23.20;96.90;;;;;;5093379;28;20184;-66
2023/09/27 08:00:09;;;;;;;0.00;0.00;;;23.30;96.40;;;;;;5093488;28;20180;-66
2023/09/27 08:02:36;;;;;;;0.00;0.00;;;23.50;96.40;;;;;;5093278;28;20655;-66
2023/09/27 08:05:09;;;;;;;0.22;0.10;;;23.80;96.40;;;;;;5093473;28;20181;-66
2023/09/27 08:07:38;;;;;;;0.00;0.00;;;24.00;96.10;;;;;;5093215;28;20184;-66
2023/09/27 08:10:05;;;;;;;0.00;0.00;;;24.20;95.70;;;;;;5093286;28;20691;-66
2023/09/27 08:12:32;;;;;;;0.05;0.05;;;24.40;95.60;;;;;;5093095;28;20212;-66
2023/09/27 08:15:03;;;;;;;0.25;0.10;;;24.50;95.40;;;;;;5093177;28;20179;-66
2023/09/27 08:17:29;;;;;;;0.10;0.10;;;24.80;94.80;;;;;;5093207;28;20263;-66
2023/09/27 08:19:55;;;;;;;0.00;0.00;;;25.20;94.10;;;;;;5092763;28;20632;-66
2023/09/27 08:22:20;;;;;;;0.10;0.10;;;25.40;93.80;;;;;;5093005;28;20230;-65
2023/09/27 08:24:46;;;;;;;0.00;0.00;;;25.60;93.70;;;;;;5092812;28;20306;-66
2023/09/27 08:27:12;;;;;;;0.00;0.00;;;25.70;93.10;;;;;;5093062;28;20276;-66
2023/09/27 08:29:37;;;;;;;0.00;0.00;;;25.80;92.90;;;;;;5092757;28;20200;-66
2023/09/27 08:32:06;;;;;;;0.00;0.00;;;25.90;92.50;;;;;;5092716;28;20635;-66
2023/09/27 08:34:32;;;;;;;0.00;0.00;;;26.10;92.60;;;;;;5092707;28;20180;-66
2023/09/27 08:36:58;;;;;;;0.00;0.00;;;26.20;92.30;;;;;;5092419;28;20176;-66
2023/09/27 08:39:24;;;;;;;0.05;0.00;;;26.40;91.80;;;;;;5092807;28;20186;-66
2023/09/27 08:41:50;;;;;;;0.00;0.00;;;26.50;91.60;;;;;;5092633;28;20199;-67
2023/09/27 08:44:16;;;;;;;0.00;0.00;;;26.60;91.90;;;;;;5092523;28;20635;-66
2023/09/27 08:46:43;;;;;;;0.00;0.00;;;26.70;91.80;;;;;;5092595;28;20179;-65
2023/09/27 08:49:12;;;;;;;0.00;0.00;;;26.90;91.50;;;;;;5092628;28;20195;-65
2023/09/27 08:51:41;;;;;;;0.00;0.00;;;26.90;90.70;;;;;;5092430;28;20249;-66
2023/09/27 08:54:07;;;;;;;0.10;0.10;;;26.90;90.20;;;;;;5092365;28;20352;-67
2023/09/27 08:56:33;;;;;;;0.20;0.20;;;26.90;90.80;;;;;;5091598;28;20624;-66
2023/09/27 08:59:00;;;;;;;0.00;0.00;;;26.90;90.70;;;;;;5092299;28;20240;-66
2023/09/27 09:01:26;;;;;;;0.00;0.00;;;26.80;90.40;;;;;;5092394;28;20176;-66
2023/09/27 09:03:52;;;;;;;0.00;0.00;;;26.60;90.20;;;;;;5092295;28;20180;-66
2023/09/27 09:06:19;;;;;;;0.00;0.00;;;26.60;90.80;;;;;;5092077;28;20251;-67
2023/09/27 09:08:46;;;;;;;0.00;0.00;;;26.60;90.60;;;;;;5092200;28;20183;-66
2023/09/27 09:11:15;;;;;;;0.10;0.10;;;26.50;91.10;;;;;;5092100;28;20570;-66
2023/09/27 09:14:03;;;;;;;0.00;0.00;;;26.60;90.50;;;;;;5092009;28;20587;-66
2023/09/27 09:16:47;;;;;;;0.00;0.00;;;26.60;90.60;;;;;;5092115;28;20246;-66
2023/09/27 09:19:22;;;;;;;0.00;0.00;;;26.60;91.10;;;;;;5091927;28;20198;-67
2023/09/27 09:21:58;;;;;;;0.00;0.00;;;26.60;90.10;;;;;;5092009;28;20168;-66
2023/09/27 09:24:24;;;;;;;0.17;0.17;;;26.60;90.80;;;;;;5091880;28;20183;-66
2023/09/27 09:27:13;;;;;;;0.00;0.00;;;26.60;90.00;;;;;;5091859;28;20252;-66
2023/09/27 09:29:48;;;;;;;0.00;0.00;;;26.60;90.20;;;;;;5091881;28;20233;-66
2023/09/27 09:32:18;;;;;;;0.00;0.00;;;26.50;90.10;;;;;;5091678;28;20203;-66
2023/09/27 09:34:45;;;;;;;0.00;0.00;;;26.50;90.70;;;;;;5091699;28;20218;-66
2023/09/27 09:37:17;;;;;;;0.00;0.00;;;26.60;90.50;;;;;;5091663;28;20251;-66
2023/09/27 09:39:44;;;;;;;0.00;0.00;;;26.70;91.00;;;;;;5091713;28;20215;-66
2023/09/27 09:42:10;;;;;;;0.00;0.00;;;26.80;90.90;;;;;;5091815;28;20225;-67
2023/09/27 09:44:35;;;;;;;0.00;0.00;;;26.80;90.50;;;;;;5091438;28;20171;-66
2023/09/27 09:47:12;;;;;;;0.05;0.05;;;26.90;90.40;;;;;;5091671;28;20255;-66
2023/09/27 09:49:38;;;;;;;0.00;0.00;;;26.90;89.40;;;;;;5091545;28;20240;-66
2023/09/27 09:52:05;;;;;;;0.00;0.00;;;27.00;89.30;;;;;;5091499;28;20225;-66
2023/09/27 09:54:46;;;;;;;0.00;0.00;;;27.10;89.90;;;;;;5091610;28;20179;-66
2023/09/27 09:57:13;;;;;;;0.20;0.10;;;27.20;89.90;;;;;;5091557;28;20214;-66
2023/09/27 09:59:54;;;;;;;0.00;0.00;;;27.20;90.00;;;;;;5091590;28;20179;-66
2023/09/27 10:02:26;;;;;;;0.00;0.00;;;27.30;88.00;;;;;;5091673;28;20187;-67
2023/09/27 10:04:55;;;;;;;0.20;0.13;;;27.40;87.00;;;;;;5091426;28;20172;-66
2023/09/27 10:07:22;;;;;;;0.00;0.00;;;27.40;88.20;;;;;;5092537;28;20174;-66
2023/09/27 10:09:49;;;;;;;0.00;0.00;;;27.50;88.00;;;;;;5095548;28;20204;-66
2023/09/27 10:12:16;;;;;;;0.00;0.00;;;27.50;87.70;;;;;;5095291;28;20683;-66
2023/09/27 10:14:44;;;;;;;0.00;0.00;;;27.60;88.10;;;;;;5095482;28;20191;-66
2023/09/27 10:17:25;;;;;;;0.00;0.00;;;27.60;87.30;;;;;;5095468;28;20184;-66
2023/09/27 10:20:13;;;;;;;0.03;0.03;;;27.50;86.60;;;;;;5095468;28;20205;-66
2023/09/27 10:22:44;;;;;;;0.00;0.00;;;27.40;85.20;;;;;;5095398;28;20180;-66
2023/09/27 10:25:28;;;;;;;0.00;0.00;;;27.70;84.20;;;;;;5095274;28;20565;-66
2023/09/27 10:28:04;;;;;;;0.00;0.00;;;27.80;84.00;;;;;;5095022;28;20192;-66
2023/09/27 10:30:42;;;;;;;0.00;0.00;;;28.10;84.50;;;;;;5095162;28;20259;-66
2023/09/27 10:33:16;;;;;;;0.00;0.00;;;28.30;82.60;;;;;;5095173;28;20212;-66
2023/09/27 10:35:46;;;;;;;0.20;0.10;;;28.30;81.00;;;;;;5095144;28;20576;-66
2023/09/27 10:38:12;;;;;;;0.00;0.00;;;28.30;80.30;;;;;;5094933;28;20219;-66
2023/09/27 10:40:46;;;;;;;0.10;0.10;;;28.40;81.20;;;;;;5094835;28;20176;-66
2023/09/27 10:43:38;;;;;;;0.00;0.00;;;28.40;80.80;;;;;;5095005;28;20536;-66
2023/09/27 10:46:04;;;;;;;0.00;0.00;;;28.40;80.60;;;;;;5093064;28;20527;-66
2023/09/27 10:48:37;;;;;;;0.00;0.00;;;28.50;81.30;;;;;;5094833;28;20700;-65
2023/09/27 10:51:03;;;;;;;0.00;0.00;;;28.20;79.30;;;;;;5094811;28;20263;-66
2023/09/27 10:53:29;;;;;;;0.00;0.00;;;28.10;81.20;;;;;;5094866;28;20306;-65
2023/09/27 10:55:55;;;;;;;0.00;0.00;;;28.20;82.80;;;;;;5094537;28;20528;-66
2023/09/27 10:58:21;;;;;;;0.00;0.00;;;28.40;80.40;;;;;;5094795;28;20187;-66
2023/09/27 11:00:57;;;;;;;0.00;0.00;;;28.50;81.00;;;;;;5094562;28;20182;-67
2023/09/27 11:03:23;;;;;;;0.00;0.00;;;28.50;80.50;;;;;;5094722;28;20274;-66
2023/09/27 11:05:50;;;;;;;0.00;0.00;;;28.50;77.20;;;;;;5094536;28;20204;-66
2023/09/27 11:08:23;;;;;;;0.03;0.03;;;28.50;78.20;;;;;;5094492;28;20239;-66
2023/09/27 11:10:51;;;;;;;0.03;0.03;;;28.70;77.50;;;;;;5094450;28;20179;-66
2023/09/27 11:13:17;;;;;;;0.00;0.00;;;28.70;77.70;;;;;;5094164;28;20222;-66
2023/09/27 11:15:44;;;;;;;0.10;0.10;;;28.90;76.80;;;;;;5094393;28;20255;-67
2023/09/27 11:18:10;;;;;;;0.00;0.00;;;28.90;75.60;;;;;;5094221;28;20188;-66
2023/09/27 11:20:36;;;;;;;0.00;0.00;;;29.00;75.90;;;;;;5093424;28;20222;-66
2023/09/27 11:23:03;;;;;;;0.00;0.00;;;29.00;74.60;;;;;;5094205;28;20179;-66
2023/09/27 11:25:33;;;;;;;0.00;0.00;;;28.90;74.10;;;;;;5094241;28;20172;-66
2023/09/27 11:27:59;;;;;;;0.00;0.00;;;28.90;73.90;;;;;;5094059;28;20172;-66
2023/09/27 11:30:26;;;;;;;0.00;0.00;;;28.90;74.50;;;;;;5093938;28;20517;-66
2023/09/27 11:32:52;;;;;;;0.00;0.00;;;29.00;74.60;;;;;;5093857;28;20674;-66
2023/09/27 11:35:21;;;;;;;0.00;0.00;;;29.10;73.90;;;;;;5093931;28;20172;-66
2023/09/27 11:37:50;;;;;;;0.00;0.00;;;29.10;73.70;;;;;;5095657;28;20681;-66
2023/09/27 11:40:16;;;;;;;0.00;0.00;;;28.90;72.50;;;;;;5093805;28;20251;-65
2023/09/27 11:42:48;;;;;;;0.00;0.00;;;28.90;73.50;;;;;;5093781;28;20675;-66
2023/09/27 11:45:13;;;;;;;0.00;0.00;;;29.00;73.60;;;;;;5093836;28;20172;-65
2023/09/27 11:47:49;;;;;;;0.00;0.00;;;29.10;73.50;;;;;;5093611;28;20187;-66
2023/09/27 11:50:15;;;;;;;0.00;0.00;;;28.90;71.80;;;;;;5093456;28;20167;-65
2023/09/27 11:52:46;;;;;;;0.00;0.00;;;28.70;71.60;;;;;;5093498;28;20208;-65
2023/09/27 11:55:15;;;;;;;0.00;0.00;;;28.50;71.30;;;;;;5093689;28;20218;-66
2023/09/27 11:57:41;;;;;;;0.00;0.00;;;28.50;71.60;;;;;;5093520;28;20176;-65
2023/09/27 12:00:09;;;;;;;0.00;0.00;;;28.30;70.60;;;;;;5093640;28;20183;-66
2023/09/27 12:02:37;;;;;;;0.00;0.00;;;28.40;71.90;;;;;;5093305;28;20184;-66
2023/09/27 12:05:04;;;;;;;0.00;0.00;;;28.70;72.50;;;;;;5093540;28;20176;-66
2023/09/27 12:07:30;;;;;;;0.00;0.00;;;28.90;70.40;;;;;;5093294;28;20568;-66
2023/09/27 12:09:56;;;;;;;0.00;0.00;;;29.00;68.10;;;;;;5093149;28;20204;-65
2023/09/27 12:12:22;;;;;;;0.00;0.00;;;28.90;66.20;;;;;;5093181;28;20269;-65
2023/09/27 12:14:49;;;;;;;0.00;0.00;;;28.90;65.30;;;;;;5093165;28;20183;-65
2023/09/27 12:17:17;;;;;;;0.00;0.00;;;28.80;65.10;;;;;;5093049;28;20182;-66
2023/09/27 12:19:45;;;;;;;0.25;0.17;;;28.70;63.40;;;;;;5093004;28;20211;-66
2023/09/27 12:22:11;;;;;;;0.00;0.00;;;28.50;61.40;;;;;;5093107;28;20168;-66
2023/09/27 12:24:37;;;;;;;0.00;0.00;;;28.20;61.80;;;;;;5092889;28;20245;-66
2023/09/27 12:27:02;;;;;;;0.00;0.00;;;28.00;62.80;;;;;;5093126;28;20168;-66
2023/09/27 12:29:29;;;;;;;0.00;0.00;;;27.80;63.50;;;;;;5092972;28;20576;-66
2023/09/27 12:31:54;;;;;;;0.08;0.08;;;27.70;64.20;;;;;;5092759;28;20164;-66
2023/09/27 12:34:20;;;;;;;0.00;0.00;;;27.70;65.30;;;;;;5092717;28;20222;-66
2023/09/27 12:36:47;;;;;;;0.00;0.00;;;27.70;65.20;;;;;;5092792;28;20173;-65
2023/09/27 12:39:13;;;;;;;0.00;0.00;;;27.50;63.50;;;;;;5092568;28;20228;-66
2023/09/27 12:41:38;;;;;;;0.00;0.00;;;27.30;62.20;;;;;;5092533;28;20179;-66
2023/09/27 12:44:04;;;;;;;0.00;0.00;;;27.10;62.60;;;;;;5092709;28;20184;-66
2023/09/27 12:46:29;;;;;;;0.00;0.00;;;26.90;62.30;;;;;;5092547;28;20670;-66
2023/09/27 12:48:55;;;;;;;0.00;0.00;;;26.80;61.90;;;;;;5092402;28;20647;-66
2023/09/27 12:51:20;;;;;;;0.00;0.00;;;26.80;62.00;;;;;;5092488;28;20176;-67